sensor_id;sensor_type;location;lat;lon;timestamp;temperature;humidity
6696;DHT22;3385;48.928;10.330;2023-04-06T00:01:10;-0.70;99.90
6696;DHT22;3385;48.928;10.330;2023-04-06T00:03:36;-0.80;99.90
6696;DHT22;3385;48.928;10.330;2023-04-06T00:06:03;-0.70;99.90
6696;DHT22;3385;48.928;10.330;2023-04-06T00:08:29;-0.40;99.90
6696;DHT22;3385;48.928;10.330;2023-04-06T00:10:55;-0.50;99.90
6696;DHT22;3385;48.928;10.330;2023-04-06T00:13:21;-0.60;99.90
6696;DHT22;3385;48.928;10.330;2023-04-06T00:15:47;-0.50;99.90
6696;DHT22;3385;48.928;10.330;2023-04-06T00:18:12;-0.60;99.90
6696;DHT22;3385;48.928;10.330;2023-04-06T00:20:39;-0.50;99.90
6696;DHT22;3385;48.928;10.330;2023-04-06T00:23:05;-0.70;99.90
6696;DHT22;3385;48.928;10.330;2023-04-06T00:25:31;-0.70;99.90
6696;DHT22;3385;48.928;10.330;2023-04-06T00:27:57;-0.80;99.90
6696;DHT22;3385;48.928;10.330;2023-04-06T00:30:23;-0.70;99.90
6696;DHT22;3385;48.928;10.330;2023-04-06T00:32:48;-0.60;99.90
6696;DHT22;3385;48.928;10.330;2023-04-06T00:35:14;-0.90;99.90
6696;DHT22;3385;48.928;10.330;2023-04-06T00:37:41;-1.00;99.90
6696;DHT22;3385;48.928;10.330;2023-04-06T00:40:07;-0.80;99.90
6696;DHT22;3385;48.928;10.330;2023-04-06T00:42:33;-1.10;99.90
6696;DHT22;3385;48.928;10.330;2023-04-06T00:45:00;-0.70;99.90
6696;DHT22;3385;48.928;10.330;2023-04-06T00:47:26;-0.90;99.90
6696;DHT22;3385;48.928;10.330;2023-04-06T00:49:53;-0.60;99.90
6696;DHT22;3385;48.928;10.330;2023-04-06T00:52:19;-1.00;99.90
6696;DHT22;3385;48.928;10.330;2023-04-06T00:54:46;-1.20;99.90
6696;DHT22;3385;48.928;10.330;2023-04-06T00:57:12;-1.00;99.90
6696;DHT22;3385;48.928;10.330;2023-04-06T00:59:39;-1.30;99.90
6696;DHT22;3385;48.928;10.330;2023-04-06T01:02:05;-1.20;99.90
6696;DHT22;3385;48.928;10.330;2023-04-06T01:04:32;-1.30;99.90
6696;DHT22;3385;48.928;10.330;2023-04-06T01:06:58;-1.20;99.90
6696;DHT22;3385;48.928;10.330;2023-04-06T01:09:24;-1.40;99.90
6696;DHT22;3385;48.928;10.330;2023-04-06T01:11:49;-0.90;99.90
6696;DHT22;3385;48.928;10.330;2023-04-06T01:14:15;-1.30;99.90
6696;DHT22;3385;48.928;10.330;2023-04-06T01:16:41;-1.50;99.90
6696;DHT22;3385;48.928;10.330;2023-04-06T01:19:12;-1.60;99.90
6696;DHT22;3385;48.928;10.330;2023-04-06T01:21:38;-1.50;99.90
6696;DHT22;3385;48.928;10.330;2023-04-06T01:24:05;-1.60;99.90
6696;DHT22;3385;48.928;10.330;2023-04-06T01:26:33;-1.50;99.90
6696;DHT22;3385;48.928;10.330;2023-04-06T01:28:59;-1.60;99.90
6696;DHT22;3385;48.928;10.330;2023-04-06T01:31:26;-1.80;99.90
6696;DHT22;3385;48.928;10.330;2023-04-06T01:33:52;-1.80;99.90
6696;DHT22;3385;48.928;10.330;2023-04-06T01:36:18;-2.00;99.90
6696;DHT22;3385;48.928;10.330;2023-04-06T01:38:44;-1.90;99.90
6696;DHT22;3385;48.928;10.330;2023-04-06T01:41:10;-2.00;99.90
6696;DHT22;3385;48.928;10.330;2023-04-06T01:43:36;-1.60;99.90
6696;DHT22;3385;48.928;10.330;2023-04-06T01:46:02;-1.90;99.90
6696;DHT22;3385;48.928;10.330;2023-04-06T01:48:27;-1.90;99.90
6696;DHT22;3385;48.928;10.330;2023-04-06T01:50:54;-2.00;99.90
6696;DHT22;3385;48.928;10.330;2023-04-06T01:53:19;-2.10;99.90
6696;DHT22;3385;48.928;10.330;2023-04-06T01:55:45;-1.90;99.90
6696;DHT22;3385;48.928;10.330;2023-04-06T01:58:11;-1.90;99.90
6696;DHT22;3385;48.928;10.330;2023-04-06T02:00:37;-1.80;99.90
6696;DHT22;3385;48.928;10.330;2023-04-06T02:03:03;-2.00;99.90
6696;DHT22;3385;48.928;10.330;2023-04-06T02:05:30;-2.00;99.90
6696;DHT22;3385;48.928;10.330;2023-04-06T02:07:56;-1.90;99.90
6696;DHT22;3385;48.928;10.330;2023-04-06T02:10:22;-2.00;99.90
6696;DHT22;3385;48.928;10.330;2023-04-06T02:12:49;-2.10;99.90
6696;DHT22;3385;48.928;10.330;2023-04-06T02:15:15;-2.10;99.90
6696;DHT22;3385;48.928;10.330;2023-04-06T02:17:41;-2.10;99.90
6696;DHT22;3385;48.928;10.330;2023-04-06T02:20:08;-2.00;99.90
6696;DHT22;3385;48.928;10.330;2023-04-06T02:22:35;-2.10;99.90
6696;DHT22;3385;48.928;10.330;2023-04-06T02:25:01;-2.10;99.90
6696;DHT22;3385;48.928;10.330;2023-04-06T02:27:27;-2.60;99.90
6696;DHT22;3385;48.928;10.330;2023-04-06T02:29:53;-2.30;99.90
6696;DHT22;3385;48.928;10.330;2023-04-06T02:32:19;-2.20;99.90
6696;DHT22;3385;48.928;10.330;2023-04-06T02:34:45;-2.40;99.90
6696;DHT22;3385;48.928;10.330;2023-04-06T02:37:10;-2.30;99.90
6696;DHT22;3385;48.928;10.330;2023-04-06T02:39:36;-2.30;99.90
6696;DHT22;3385;48.928;10.330;2023-04-06T02:42:02;-2.40;99.90
6696;DHT22;3385;48.928;10.330;2023-04-06T02:44:28;-2.60;99.90
6696;DHT22;3385;48.928;10.330;2023-04-06T02:46:53;-2.50;99.90
6696;DHT22;3385;48.928;10.330;2023-04-06T02:49:19;-2.30;99.90
6696;DHT22;3385;48.928;10.330;2023-04-06T02:51:45;-2.30;99.90
6696;DHT22;3385;48.928;10.330;2023-04-06T02:54:11;-2.30;99.90
6696;DHT22;3385;48.928;10.330;2023-04-06T02:56:37;-2.30;99.90
6696;DHT22;3385;48.928;10.330;2023-04-06T02:59:02;-2.30;99.90
6696;DHT22;3385;48.928;10.330;2023-04-06T03:01:28;-2.30;99.90
6696;DHT22;3385;48.928;10.330;2023-04-06T03:03:54;-2.20;99.90
6696;DHT22;3385;48.928;10.330;2023-04-06T03:06:20;-1.90;99.90
6696;DHT22;3385;48.928;10.330;2023-04-06T03:08:45;-2.20;99.90
6696;DHT22;3385;48.928;10.330;2023-04-06T03:11:12;-2.00;99.90
6696;DHT22;3385;48.928;10.330;2023-04-06T03:13:38;-2.00;99.90
6696;DHT22;3385;48.928;10.330;2023-04-06T03:16:05;-1.90;99.90
6696;DHT22;3385;48.928;10.330;2023-04-06T03:18:32;-1.90;99.90
6696;DHT22;3385;48.928;10.330;2023-04-06T03:20:58;-1.90;99.90
6696;DHT22;3385;48.928;10.330;2023-04-06T03:23:25;-1.90;99.90
6696;DHT22;3385;48.928;10.330;2023-04-06T03:25:51;-2.20;99.90
6696;DHT22;3385;48.928;10.330;2023-04-06T03:28:17;-2.20;99.90
6696;DHT22;3385;48.928;10.330;2023-04-06T03:30:43;-2.10;99.90
6696;DHT22;3385;48.928;10.330;2023-04-06T03:33:08;-2.10;99.90
6696;DHT22;3385;48.928;10.330;2023-04-06T03:35:34;-2.10;99.90
6696;DHT22;3385;48.928;10.330;2023-04-06T03:38:02;-1.90;99.90
6696;DHT22;3385;48.928;10.330;2023-04-06T03:40:29;-2.10;99.90
6696;DHT22;3385;48.928;10.330;2023-04-06T03:42:54;-2.30;99.90
6696;DHT22;3385;48.928;10.330;2023-04-06T03:45:20;-2.40;99.90
6696;DHT22;3385;48.928;10.330;2023-04-06T03:47:46;-2.40;99.90
6696;DHT22;3385;48.928;10.330;2023-04-06T03:50:12;-2.40;99.90
6696;DHT22;3385;48.928;10.330;2023-04-06T03:52:37;-2.40;99.90
6696;DHT22;3385;48.928;10.330;2023-04-06T03:55:04;-2.50;99.90
6696;DHT22;3385;48.928;10.330;2023-04-06T03:57:30;-2.50;99.90
6696;DHT22;3385;48.928;10.330;2023-04-06T03:59:55;-2.50;99.90
6696;DHT22;3385;48.928;10.330;2023-04-06T04:02:21;-2.60;99.90
6696;DHT22;3385;48.928;10.330;2023-04-06T04:04:47;-2.50;99.90
6696;DHT22;3385;48.928;10.330;2023-04-06T04:07:13;-2.50;99.90
6696;DHT22;3385;48.928;10.330;2023-04-06T04:09:38;-2.60;99.90
6696;DHT22;3385;48.928;10.330;2023-04-06T04:12:05;-2.50;99.90
6696;DHT22;3385;48.928;10.330;2023-04-06T04:14:30;-2.70;99.90
6696;DHT22;3385;48.928;10.330;2023-04-06T04:16:56;-2.40;99.90
6696;DHT22;3385;48.928;10.330;2023-04-06T04:19:23;-2.50;99.90
6696;DHT22;3385;48.928;10.330;2023-04-06T04:21:49;-2.70;99.90
6696;DHT22;3385;48.928;10.330;2023-04-06T04:24:15;-2.70;99.90
6696;DHT22;3385;48.928;10.330;2023-04-06T04:26:41;-2.80;99.90
6696;DHT22;3385;48.928;10.330;2023-04-06T04:29:07;-2.60;99.90
6696;DHT22;3385;48.928;10.330;2023-04-06T04:31:33;-2.60;99.90
6696;DHT22;3385;48.928;10.330;2023-04-06T04:33:59;-2.80;99.90
6696;DHT22;3385;48.928;10.330;2023-04-06T04:36:25;-2.70;99.90
6696;DHT22;3385;48.928;10.330;2023-04-06T04:38:54;-2.90;99.90
6696;DHT22;3385;48.928;10.330;2023-04-06T04:41:20;-3.00;99.90
6696;DHT22;3385;48.928;10.330;2023-04-06T04:43:46;-2.90;99.90
6696;DHT22;3385;48.928;10.330;2023-04-06T04:46:12;-2.90;99.90
6696;DHT22;3385;48.928;10.330;2023-04-06T04:48:38;-2.80;99.90
6696;DHT22;3385;48.928;10.330;2023-04-06T04:51:04;-2.90;99.90
6696;DHT22;3385;48.928;10.330;2023-04-06T04:53:31;-2.80;99.90
6696;DHT22;3385;48.928;10.330;2023-04-06T04:55:56;-2.80;99.90
6696;DHT22;3385;48.928;10.330;2023-04-06T04:58:22;-2.60;99.90
6696;DHT22;3385;48.928;10.330;2023-04-06T05:00:48;-2.40;99.90
6696;DHT22;3385;48.928;10.330;2023-04-06T05:03:22;-2.30;99.90
6696;DHT22;3385;48.928;10.330;2023-04-06T05:05:48;-2.20;99.90
6696;DHT22;3385;48.928;10.330;2023-04-06T05:08:14;-2.60;99.90
6696;DHT22;3385;48.928;10.330;2023-04-06T05:10:40;-2.40;99.90
6696;DHT22;3385;48.928;10.330;2023-04-06T05:13:06;-2.40;99.90
6696;DHT22;3385;48.928;10.330;2023-04-06T05:15:31;-2.10;99.90
6696;DHT22;3385;48.928;10.330;2023-04-06T05:18:00;-2.40;99.90
6696;DHT22;3385;48.928;10.330;2023-04-06T05:20:26;-2.40;99.90
6696;DHT22;3385;48.928;10.330;2023-04-06T05:22:53;-2.40;99.90
6696;DHT22;3385;48.928;10.330;2023-04-06T05:25:19;-2.30;99.90
6696;DHT22;3385;48.928;10.330;2023-04-06T05:27:45;-2.40;99.90
6696;DHT22;3385;48.928;10.330;2023-04-06T05:30:11;-2.10;99.90
6696;DHT22;3385;48.928;10.330;2023-04-06T05:32:37;-2.10;99.90
6696;DHT22;3385;48.928;10.330;2023-04-06T05:35:03;-2.20;99.90
6696;DHT22;3385;48.928;10.330;2023-04-06T05:37:29;-2.00;99.90
6696;DHT22;3385;48.928;10.330;2023-04-06T05:39:54;-1.70;99.90
6696;DHT22;3385;48.928;10.330;2023-04-06T05:42:21;-1.60;99.90
6696;DHT22;3385;48.928;10.330;2023-04-06T05:44:47;-1.70;99.90
6696;DHT22;3385;48.928;10.330;2023-04-06T05:47:13;-1.70;99.90
6696;DHT22;3385;48.928;10.330;2023-04-06T05:49:41;-1.60;99.90
6696;DHT22;3385;48.928;10.330;2023-04-06T05:52:08;-1.40;99.90
6696;DHT22;3385;48.928;10.330;2023-04-06T05:54:35;-1.50;99.90
6696;DHT22;3385;48.928;10.330;2023-04-06T05:57:02;-1.40;99.90
6696;DHT22;3385;48.928;10.330;2023-04-06T05:59:30;-1.20;99.90
6696;DHT22;3385;48.928;10.330;2023-04-06T06:01:56;-1.30;99.90
6696;DHT22;3385;48.928;10.330;2023-04-06T06:04:22;-1.00;99.90
6696;DHT22;3385;48.928;10.330;2023-04-06T06:06:48;-1.20;99.90
6696;DHT22;3385;48.928;10.330;2023-04-06T06:09:13;-1.20;99.90
6696;DHT22;3385;48.928;10.330;2023-04-06T06:11:40;-1.10;99.90
6696;DHT22;3385;48.928;10.330;2023-04-06T06:14:06;-0.80;99.90
6696;DHT22;3385;48.928;10.330;2023-04-06T06:16:32;-0.80;99.90
6696;DHT22;3385;48.928;10.330;2023-04-06T06:18:58;-0.40;99.90
6696;DHT22;3385;48.928;10.330;2023-04-06T06:21:23;-0.70;99.90
6696;DHT22;3385;48.928;10.330;2023-04-06T06:23:49;-0.20;99.90
6696;DHT22;3385;48.928;10.330;2023-04-06T06:26:15;-0.40;99.90
6696;DHT22;3385;48.928;10.330;2023-04-06T06:28:41;0.00;99.90
6696;DHT22;3385;48.928;10.330;2023-04-06T06:31:07;-0.10;99.90
6696;DHT22;3385;48.928;10.330;2023-04-06T06:33:33;0.20;99.90
6696;DHT22;3385;48.928;10.330;2023-04-06T06:35:59;0.20;99.90
6696;DHT22;3385;48.928;10.330;2023-04-06T06:38:25;0.50;99.90
6696;DHT22;3385;48.928;10.330;2023-04-06T06:40:51;0.50;99.90
6696;DHT22;3385;48.928;10.330;2023-04-06T06:43:17;0.40;99.90
6696;DHT22;3385;48.928;10.330;2023-04-06T06:45:43;0.50;99.90
6696;DHT22;3385;48.928;10.330;2023-04-06T06:48:09;0.60;99.90
6696;DHT22;3385;48.928;10.330;2023-04-06T06:50:36;0.80;99.90
6696;DHT22;3385;48.928;10.330;2023-04-06T06:53:02;0.80;99.90
6696;DHT22;3385;48.928;10.330;2023-04-06T06:55:27;1.10;99.90
6696;DHT22;3385;48.928;10.330;2023-04-06T06:57:53;1.30;99.90
6696;DHT22;3385;48.928;10.330;2023-04-06T07:00:19;1.50;99.90
6696;DHT22;3385;48.928;10.330;2023-04-06T07:02:48;1.50;99.90
6696;DHT22;3385;48.928;10.330;2023-04-06T07:05:15;1.40;99.90
6696;DHT22;3385;48.928;10.330;2023-04-06T07:07:41;1.50;99.90
6696;DHT22;3385;48.928;10.330;2023-04-06T07:10:08;1.90;99.90
6696;DHT22;3385;48.928;10.330;2023-04-06T07:12:34;2.00;99.90
6696;DHT22;3385;48.928;10.330;2023-04-06T07:15:00;2.30;99.90
6696;DHT22;3385;48.928;10.330;2023-04-06T07:17:26;2.30;99.90
6696;DHT22;3385;48.928;10.330;2023-04-06T07:19:51;2.10;99.90
6696;DHT22;3385;48.928;10.330;2023-04-06T07:22:17;2.30;99.90
6696;DHT22;3385;48.928;10.330;2023-04-06T07:24:43;2.70;99.90
6696;DHT22;3385;48.928;10.330;2023-04-06T07:27:17;2.60;99.90
6696;DHT22;3385;48.928;10.330;2023-04-06T07:29:44;2.90;99.90
6696;DHT22;3385;48.928;10.330;2023-04-06T07:32:10;2.90;99.90
6696;DHT22;3385;48.928;10.330;2023-04-06T07:34:36;1.60;99.90
6696;DHT22;3385;48.928;10.330;2023-04-06T07:37:04;3.20;99.90
6696;DHT22;3385;48.928;10.330;2023-04-06T07:39:31;3.40;99.90
6696;DHT22;3385;48.928;10.330;2023-04-06T07:41:57;3.40;99.90
6696;DHT22;3385;48.928;10.330;2023-04-06T07:44:23;3.50;99.90
6696;DHT22;3385;48.928;10.330;2023-04-06T07:46:48;4.30;99.90
6696;DHT22;3385;48.928;10.330;2023-04-06T07:49:14;3.70;99.90
6696;DHT22;3385;48.928;10.330;2023-04-06T07:52:07;4.30;99.90
6696;DHT22;3385;48.928;10.330;2023-04-06T07:54:32;4.30;99.90
6696;DHT22;3385;48.928;10.330;2023-04-06T07:56:58;4.50;99.90
6696;DHT22;3385;48.928;10.330;2023-04-06T07:59:24;5.00;99.90
6696;DHT22;3385;48.928;10.330;2023-04-06T08:01:50;5.30;99.90
6696;DHT22;3385;48.928;10.330;2023-04-06T08:04:15;5.70;99.90
6696;DHT22;3385;48.928;10.330;2023-04-06T08:06:41;5.90;99.90
6696;DHT22;3385;48.928;10.330;2023-04-06T08:09:07;5.90;99.90
6696;DHT22;3385;48.928;10.330;2023-04-06T08:11:33;6.80;99.90
6696;DHT22;3385;48.928;10.330;2023-04-06T08:13:58;5.90;99.90
6696;DHT22;3385;48.928;10.330;2023-04-06T08:16:24;6.00;99.90
6696;DHT22;3385;48.928;10.330;2023-04-06T08:18:50;5.90;99.90
6696;DHT22;3385;48.928;10.330;2023-04-06T08:21:16;6.30;99.90
6696;DHT22;3385;48.928;10.330;2023-04-06T08:23:42;6.60;99.90
6696;DHT22;3385;48.928;10.330;2023-04-06T08:26:07;6.90;99.90
6696;DHT22;3385;48.928;10.330;2023-04-06T08:28:33;7.30;99.90
6696;DHT22;3385;48.928;10.330;2023-04-06T08:31:06;7.40;99.90
6696;DHT22;3385;48.928;10.330;2023-04-06T08:33:33;7.70;99.90
6696;DHT22;3385;48.928;10.330;2023-04-06T08:36:11;8.00;99.90
6696;DHT22;3385;48.928;10.330;2023-04-06T08:38:38;8.20;99.90
6696;DHT22;3385;48.928;10.330;2023-04-06T08:41:10;8.50;99.90
6696;DHT22;3385;48.928;10.330;2023-04-06T08:46:08;8.80;99.90
6696;DHT22;3385;48.928;10.330;2023-04-06T08:48:34;9.20;99.90
6696;DHT22;3385;48.928;10.330;2023-04-06T08:51:02;9.70;99.90
6696;DHT22;3385;48.928;10.330;2023-04-06T08:53:28;9.90;99.90
6696;DHT22;3385;48.928;10.330;2023-04-06T08:55:55;10.10;99.90
6696;DHT22;3385;48.928;10.330;2023-04-06T08:58:22;9.70;99.90
6696;DHT22;3385;48.928;10.330;2023-04-06T09:00:49;9.30;99.90
6696;DHT22;3385;48.928;10.330;2023-04-06T09:03:16;9.20;99.90
6696;DHT22;3385;48.928;10.330;2023-04-06T09:05:44;9.70;99.90
6696;DHT22;3385;48.928;10.330;2023-04-06T09:08:11;9.40;99.90
6696;DHT22;3385;48.928;10.330;2023-04-06T09:10:40;9.60;99.90
6696;DHT22;3385;48.928;10.330;2023-04-06T09:13:07;9.70;99.90
6696;DHT22;3385;48.928;10.330;2023-04-06T09:15:34;9.70;99.90
6696;DHT22;3385;48.928;10.330;2023-04-06T09:18:01;9.40;99.90
6696;DHT22;3385;48.928;10.330;2023-04-06T09:20:27;9.50;99.90
6696;DHT22;3385;48.928;10.330;2023-04-06T09:22:54;9.70;99.90
6696;DHT22;3385;48.928;10.330;2023-04-06T09:25:21;9.80;99.90
6696;DHT22;3385;48.928;10.330;2023-04-06T09:27:49;9.80;99.90
6696;DHT22;3385;48.928;10.330;2023-04-06T09:30:23;10.10;99.90
6696;DHT22;3385;48.928;10.330;2023-04-06T09:32:54;10.10;99.90
6696;DHT22;3385;48.928;10.330;2023-04-06T09:35:21;10.50;99.90
6696;DHT22;3385;48.928;10.330;2023-04-06T09:37:49;10.50;99.90
6696;DHT22;3385;48.928;10.330;2023-04-06T09:40:15;10.70;99.90
6696;DHT22;3385;48.928;10.330;2023-04-06T09:42:45;11.00;99.90
6696;DHT22;3385;48.928;10.330;2023-04-06T09:45:12;10.80;99.90
6696;DHT22;3385;48.928;10.330;2023-04-06T09:47:40;10.80;99.90
6696;DHT22;3385;48.928;10.330;2023-04-06T09:50:10;10.80;99.90
6696;DHT22;3385;48.928;10.330;2023-04-06T09:52:50;11.20;99.90
6696;DHT22;3385;48.928;10.330;2023-04-06T09:55:36;10.90;99.90
6696;DHT22;3385;48.928;10.330;2023-04-06T09:58:06;10.70;99.90
6696;DHT22;3385;48.928;10.330;2023-04-06T10:01:01;10.60;99.90
6696;DHT22;3385;48.928;10.330;2023-04-06T10:03:51;10.80;99.90
6696;DHT22;3385;48.928;10.330;2023-04-06T10:06:22;11.00;99.90
6696;DHT22;3385;48.928;10.330;2023-04-06T10:08:50;11.00;99.90
6696;DHT22;3385;48.928;10.330;2023-04-06T10:11:17;10.40;99.90
6696;DHT22;3385;48.928;10.330;2023-04-06T10:13:44;10.50;99.90
6696;DHT22;3385;48.928;10.330;2023-04-06T10:16:13;9.90;99.90
6696;DHT22;3385;48.928;10.330;2023-04-06T10:18:43;10.20;99.90
6696;DHT22;3385;48.928;10.330;2023-04-06T10:21:14;10.70;99.90
6696;DHT22;3385;48.928;10.330;2023-04-06T10:23:51;11.10;99.90
6696;DHT22;3385;48.928;10.330;2023-04-06T10:26:20;11.50;99.90
6696;DHT22;3385;48.928;10.330;2023-04-06T10:28:48;11.60;99.90
6696;DHT22;3385;48.928;10.330;2023-04-06T10:31:14;11.80;99.90
6696;DHT22;3385;48.928;10.330;2023-04-06T10:33:40;12.10;99.90
6696;DHT22;3385;48.928;10.330;2023-04-06T10:36:23;12.40;99.90
6696;DHT22;3385;48.928;10.330;2023-04-06T10:38:55;13.10;99.90
6696;DHT22;3385;48.928;10.330;2023-04-06T10:41:22;13.20;99.90
6696;DHT22;3385;48.928;10.330;2023-04-06T10:43:55;12.90;99.90
6696;DHT22;3385;48.928;10.330;2023-04-06T10:46:30;13.00;99.90
6696;DHT22;3385;48.928;10.330;2023-04-06T10:48:56;13.20;99.90
6696;DHT22;3385;48.928;10.330;2023-04-06T10:51:28;13.40;99.90
6696;DHT22;3385;48.928;10.330;2023-04-06T10:53:55;13.80;99.90
6696;DHT22;3385;48.928;10.330;2023-04-06T10:56:23;14.20;99.90
6696;DHT22;3385;48.928;10.330;2023-04-06T10:58:54;14.70;99.90
6696;DHT22;3385;48.928;10.330;2023-04-06T11:01:22;14.70;99.90
6696;DHT22;3385;48.928;10.330;2023-04-06T11:03:55;15.50;99.90
6696;DHT22;3385;48.928;10.330;2023-04-06T11:06:28;15.30;99.90
6696;DHT22;3385;48.928;10.330;2023-04-06T11:08:55;14.80;99.90
6696;DHT22;3385;48.928;10.330;2023-04-06T11:11:22;14.70;99.90
6696;DHT22;3385;48.928;10.330;2023-04-06T11:13:51;15.10;99.90
6696;DHT22;3385;48.928;10.330;2023-04-06T11:18:56;14.50;99.90
6696;DHT22;3385;48.928;10.330;2023-04-06T11:21:43;14.20;99.90
6696;DHT22;3385;48.928;10.330;2023-04-06T11:24:21;15.50;99.90
6696;DHT22;3385;48.928;10.330;2023-04-06T11:26:48;16.40;99.90
6696;DHT22;3385;48.928;10.330;2023-04-06T11:29:20;16.70;99.90
6696;DHT22;3385;48.928;10.330;2023-04-06T11:31:51;15.80;99.90
6696;DHT22;3385;48.928;10.330;2023-04-06T11:34:19;15.50;99.90
6696;DHT22;3385;48.928;10.330;2023-04-06T11:36:47;15.70;99.90
6696;DHT22;3385;48.928;10.330;2023-04-06T11:39:20;16.50;99.90
6696;DHT22;3385;48.928;10.330;2023-04-06T11:41:50;17.30;99.90
6696;DHT22;3385;48.928;10.330;2023-04-06T11:44:36;18.00;99.90
6696;DHT22;3385;48.928;10.330;2023-04-06T11:47:06;17.50;99.90
6696;DHT22;3385;48.928;10.330;2023-04-06T11:49:33;18.30;99.90
6696;DHT22;3385;48.928;10.330;2023-04-06T11:52:02;19.30;99.90
6696;DHT22;3385;48.928;10.330;2023-04-06T11:54:35;19.70;99.90
6696;DHT22;3385;48.928;10.330;2023-04-06T11:57:04;20.90;99.90
6696;DHT22;3385;48.928;10.330;2023-04-06T11:59:34;20.80;99.90
6696;DHT22;3385;48.928;10.330;2023-04-06T12:02:01;21.70;99.90
6696;DHT22;3385;48.928;10.330;2023-04-06T12:04:27;21.50;99.90
6696;DHT22;3385;48.928;10.330;2023-04-06T12:06:53;22.60;99.90
6696;DHT22;3385;48.928;10.330;2023-04-06T12:09:19;22.90;99.90
6696;DHT22;3385;48.928;10.330;2023-04-06T12:11:45;21.10;99.90
6696;DHT22;3385;48.928;10.330;2023-04-06T12:14:11;20.60;99.90
6696;DHT22;3385;48.928;10.330;2023-04-06T12:16:38;19.90;99.90
6696;DHT22;3385;48.928;10.330;2023-04-06T12:19:04;19.70;99.90
6696;DHT22;3385;48.928;10.330;2023-04-06T12:21:30;20.30;99.90
6696;DHT22;3385;48.928;10.330;2023-04-06T12:23:59;21.60;99.90
6696;DHT22;3385;48.928;10.330;2023-04-06T12:26:26;22.80;99.90
6696;DHT22;3385;48.928;10.330;2023-04-06T12:28:52;22.00;99.90
6696;DHT22;3385;48.928;10.330;2023-04-06T12:31:21;21.70;99.90
6696;DHT22;3385;48.928;10.330;2023-04-06T12:33:51;21.70;99.90
6696;DHT22;3385;48.928;10.330;2023-04-06T12:36:19;22.60;99.90
6696;DHT22;3385;48.928;10.330;2023-04-06T12:38:48;23.40;99.90
6696;DHT22;3385;48.928;10.330;2023-04-06T12:41:17;24.10;99.90
6696;DHT22;3385;48.928;10.330;2023-04-06T12:43:43;24.10;99.90
6696;DHT22;3385;48.928;10.330;2023-04-06T12:46:09;23.20;99.90
6696;DHT22;3385;48.928;10.330;2023-04-06T12:48:36;22.20;99.90
6696;DHT22;3385;48.928;10.330;2023-04-06T12:51:06;22.10;99.90
6696;DHT22;3385;48.928;10.330;2023-04-06T12:53:33;20.60;99.90
6696;DHT22;3385;48.928;10.330;2023-04-06T12:55:59;22.00;99.90
6696;DHT22;3385;48.928;10.330;2023-04-06T12:58:26;22.70;99.90
6696;DHT22;3385;48.928;10.330;2023-04-06T13:00:57;23.70;99.90
6696;DHT22;3385;48.928;10.330;2023-04-06T13:03:23;23.10;99.90
6696;DHT22;3385;48.928;10.330;2023-04-06T13:05:50;22.80;99.90
6696;DHT22;3385;48.928;10.330;2023-04-06T13:08:18;21.90;99.90
6696;DHT22;3385;48.928;10.330;2023-04-06T13:10:48;22.90;99.90
6696;DHT22;3385;48.928;10.330;2023-04-06T13:13:14;22.60;99.90
6696;DHT22;3385;48.928;10.330;2023-04-06T13:15:40;24.20;99.90
6696;DHT22;3385;48.928;10.330;2023-04-06T13:18:07;24.10;99.90
6696;DHT22;3385;48.928;10.330;2023-04-06T13:20:33;22.50;99.90
6696;DHT22;3385;48.928;10.330;2023-04-06T13:22:59;22.60;99.90
6696;DHT22;3385;48.928;10.330;2023-04-06T13:25:25;23.20;99.90
6696;DHT22;3385;48.928;10.330;2023-04-06T13:27:52;24.50;99.90
6696;DHT22;3385;48.928;10.330;2023-04-06T13:30:18;22.90;99.90
6696;DHT22;3385;48.928;10.330;2023-04-06T13:32:43;22.30;99.90
6696;DHT22;3385;48.928;10.330;2023-04-06T13:35:10;22.40;99.90
6696;DHT22;3385;48.928;10.330;2023-04-06T13:37:36;23.20;99.90
6696;DHT22;3385;48.928;10.330;2023-04-06T13:40:03;23.10;99.90
6696;DHT22;3385;48.928;10.330;2023-04-06T13:42:30;23.10;99.90
6696;DHT22;3385;48.928;10.330;2023-04-06T13:44:56;23.40;99.90
6696;DHT22;3385;48.928;10.330;2023-04-06T13:47:21;24.00;99.90
6696;DHT22;3385;48.928;10.330;2023-04-06T13:49:50;23.60;99.90
6696;DHT22;3385;48.928;10.330;2023-04-06T13:52:19;24.90;99.90
6696;DHT22;3385;48.928;10.330;2023-04-06T13:54:45;25.90;99.90
6696;DHT22;3385;48.928;10.330;2023-04-06T13:57:12;25.40;99.90
6696;DHT22;3385;48.928;10.330;2023-04-06T13:59:38;24.90;99.90
6696;DHT22;3385;48.928;10.330;2023-04-06T14:02:07;22.10;99.90
6696;DHT22;3385;48.928;10.330;2023-04-06T14:04:33;20.30;99.90
6696;DHT22;3385;48.928;10.330;2023-04-06T14:07:00;20.60;99.90
6696;DHT22;3385;48.928;10.330;2023-04-06T14:09:27;21.00;99.90
6696;DHT22;3385;48.928;10.330;2023-04-06T14:11:53;23.30;99.90
6696;DHT22;3385;48.928;10.330;2023-04-06T14:14:19;24.40;99.90
6696;DHT22;3385;48.928;10.330;2023-04-06T14:16:46;23.40;99.90
6696;DHT22;3385;48.928;10.330;2023-04-06T14:19:14;24.60;99.90
6696;DHT22;3385;48.928;10.330;2023-04-06T14:21:41;24.50;99.90
6696;DHT22;3385;48.928;10.330;2023-04-06T14:24:09;23.40;99.90
6696;DHT22;3385;48.928;10.330;2023-04-06T14:26:35;23.70;99.90
6696;DHT22;3385;48.928;10.330;2023-04-06T14:29:02;24.20;99.90
6696;DHT22;3385;48.928;10.330;2023-04-06T14:31:29;24.40;99.90
6696;DHT22;3385;48.928;10.330;2023-04-06T14:33:56;24.40;99.90
6696;DHT22;3385;48.928;10.330;2023-04-06T14:36:22;25.90;99.90
6696;DHT22;3385;48.928;10.330;2023-04-06T14:38:48;24.70;99.90
6696;DHT22;3385;48.928;10.330;2023-04-06T14:41:18;24.00;99.90
6696;DHT22;3385;48.928;10.330;2023-04-06T14:43:45;23.80;99.90
6696;DHT22;3385;48.928;10.330;2023-04-06T14:46:11;20.60;99.90
6696;DHT22;3385;48.928;10.330;2023-04-06T14:48:38;23.50;99.90
6696;DHT22;3385;48.928;10.330;2023-04-06T14:51:05;23.80;99.90
6696;DHT22;3385;48.928;10.330;2023-04-06T14:53:31;23.70;99.90
6696;DHT22;3385;48.928;10.330;2023-04-06T14:55:57;22.60;99.90
6696;DHT22;3385;48.928;10.330;2023-04-06T14:58:24;22.70;99.90
6696;DHT22;3385;48.928;10.330;2023-04-06T15:00:56;23.20;99.90
6696;DHT22;3385;48.928;10.330;2023-04-06T15:03:23;24.20;99.90
6696;DHT22;3385;48.928;10.330;2023-04-06T15:05:51;24.10;99.90
6696;DHT22;3385;48.928;10.330;2023-04-06T15:08:17;23.70;99.90
6696;DHT22;3385;48.928;10.330;2023-04-06T15:10:47;22.80;99.90
6696;DHT22;3385;48.928;10.330;2023-04-06T15:13:13;22.20;99.90
6696;DHT22;3385;48.928;10.330;2023-04-06T15:15:40;20.90;99.90
6696;DHT22;3385;48.928;10.330;2023-04-06T15:18:06;20.30;99.90
6696;DHT22;3385;48.928;10.330;2023-04-06T15:20:32;19.90;99.90
6696;DHT22;3385;48.928;10.330;2023-04-06T15:22:58;19.70;99.90
6696;DHT22;3385;48.928;10.330;2023-04-06T15:25:24;19.20;99.90
6696;DHT22;3385;48.928;10.330;2023-04-06T15:27:49;19.30;99.90
6696;DHT22;3385;48.928;10.330;2023-04-06T15:30:15;19.10;99.90
6696;DHT22;3385;48.928;10.330;2023-04-06T15:33:00;18.60;99.90
6696;DHT22;3385;48.928;10.330;2023-04-06T15:35:27;18.10;99.90
6696;DHT22;3385;48.928;10.330;2023-04-06T15:37:56;18.50;99.90
6696;DHT22;3385;48.928;10.330;2023-04-06T15:40:23;18.60;99.90
6696;DHT22;3385;48.928;10.330;2023-04-06T15:42:49;19.20;99.90
6696;DHT22;3385;48.928;10.330;2023-04-06T15:45:15;19.60;99.90
6696;DHT22;3385;48.928;10.330;2023-04-06T15:47:42;19.10;99.90
6696;DHT22;3385;48.928;10.330;2023-04-06T15:50:08;19.70;99.90
6696;DHT22;3385;48.928;10.330;2023-04-06T15:52:34;20.60;99.90
6696;DHT22;3385;48.928;10.330;2023-04-06T15:55:02;20.20;99.90